Time;durP1;ratioP1;P1;durP2;ratioP2;P2;SDS_P1;SDS_P2;PMS_P1;PMS_P2;Temp;Humidity;BMP_temperature;BMP_pressure;BME280_temperature;BME280_humidity;BME280_pressure;Samples;Min_cycle;Max_cycle;Signal;HPM_P1;HPM_P2
2023/07/15 00:02:46;;;;;;;;;17.00;15.60;;;;;23.15;100.00;98764.91;7736427;22;96455;-67
2023/07/15 00:05:50;;;;;;;;;18.00;16.60;;;;;23.12;100.00;98788.31;7707943;22;98422;-67
2023/07/15 00:08:55;;;;;;;;;17.00;17.00;;;;;23.10;100.00;98778.75;7706883;22;96763;-67
2023/07/15 00:11:58;;;;;;;;;18.00;16.00;;;;;23.08;100.00;98779.03;7733958;22;96595;-67
2023/07/15 00:15:02;;;;;;;;;15.50;14.50;;;;;23.01;100.00;98773.16;7734064;22;96491;-67
2023/07/15 00:18:06;;;;;;;;;16.00;15.00;;;;;22.96;100.00;98777.94;7733838;22;96305;-67
2023/07/15 00:21:18;;;;;;;;;17.00;16.00;;;;;22.86;100.00;98774.28;7706620;22;96915;-67
2023/07/15 00:24:21;;;;;;;;;16.00;14.00;;;;;22.79;100.00;98760.09;7732675;22;98987;-67
2023/07/15 00:27:25;;;;;;;;;16.00;15.60;;;;;22.76;100.00;98768.16;7736301;22;97349;-67
2023/07/15 00:30:31;;;;;;;;;17.40;17.40;;;;;22.73;100.00;98772.31;7708642;22;96760;-67
2023/07/15 00:33:35;;;;;;;;;16.40;15.40;;;;;22.71;100.00;98768.25;7737082;22;96794;-67
2023/07/15 00:36:39;;;;;;;;;16.80;15.40;;;;;22.66;100.00;98769.13;7683618;22;96562;-67
2023/07/15 00:39:43;;;;;;;;;15.00;14.00;;;;;22.64;100.00;98765.03;7738171;22;96476;-66
2023/07/15 00:43:24;;;;;;;;;17.00;16.40;;;;;22.60;100.00;98770.31;7711254;22;96570;-66
2023/07/15 00:47:12;;;;;;;;;14.00;14.00;;;;;22.56;100.00;98768.50;7684851;22;96747;-67
2023/07/15 00:50:15;;;;;;;;;17.00;15.00;;;;;22.54;100.00;98770.72;7684457;22;96588;-67
2023/07/15 00:53:19;;;;;;;;;19.00;17.00;;;;;22.51;100.00;98765.84;7737992;22;96264;-66
2023/07/15 00:56:23;;;;;;;;;18.00;17.00;;;;;22.41;100.00;98761.34;7738321;22;96337;-67
2023/07/15 00:59:27;;;;;;;;;18.00;16.50;;;;;22.43;100.00;98770.91;7710156;22;96663;-67
2023/07/15 01:02:31;;;;;;;;;17.50;16.00;;;;;22.41;100.00;98772.31;7684946;22;96632;-67
2023/07/15 01:05:36;;;;;;;;;18.00;16.60;;;;;22.42;100.00;98771.22;7710763;22;96293;-67
2023/07/15 01:08:39;;;;;;;;;18.00;16.00;;;;;22.32;100.00;98746.69;7738029;22;96237;-67
2023/07/15 01:11:43;;;;;;;;;14.60;13.80;;;;;22.39;100.00;98752.56;7736735;22;96397;-67
2023/07/15 01:14:47;;;;;;;;;14.00;14.00;;;;;22.38;100.00;98759.22;7737864;22;96384;-67
2023/07/15 01:17:52;;;;;;;;;15.40;13.80;;;;;22.38;100.00;98757.25;7710574;22;96633;-67
2023/07/15 01:20:58;;;;;;;;;16.60;15.60;;;;;22.37;100.00;98750.16;7738309;22;96221;-67
2023/07/15 01:24:06;;;;;;;;;17.00;16.00;;;;;22.31;100.00;98736.81;7709746;22;98518;-67
2023/07/15 01:27:09;;;;;;;;;15.40;14.40;;;;;22.39;100.00;98744.34;7710841;22;96304;-66
2023/07/15 01:30:12;;;;;;;;;19.00;18.00;;;;;22.38;100.00;98746.25;7710408;22;96139;-67
2023/07/15 01:33:16;;;;;;;;;19.00;17.67;;;;;22.36;100.00;98740.28;7709657;22;98421;-67
2023/07/15 01:36:19;;;;;;;;;14.00;13.25;;;;;22.38;100.00;98742.72;7709961;22;96799;-67
2023/07/15 01:39:25;;;;;;;;;13.20;12.80;;;;;22.37;100.00;98741.91;7736383;22;96698;-67
2023/07/15 01:42:28;;;;;;;;;17.80;15.80;;;;;22.36;100.00;98745.75;7737947;22;96416;-67
2023/07/15 01:45:31;;;;;;;;;15.80;15.80;;;;;22.40;100.00;98745.97;7710646;22;96253;-67
2023/07/15 01:48:35;;;;;;;;;17.00;16.00;;;;;22.41;100.00;98737.44;7736817;22;96687;-67
2023/07/15 01:51:39;;;;;;;;;17.00;15.75;;;;;22.40;100.00;98741.28;7710154;22;96354;-67
2023/07/15 01:54:44;;;;;;;;;13.20;11.20;;;;;22.38;100.00;98742.72;7709531;22;96543;-67
2023/07/15 01:57:47;;;;;;;;;16.40;16.00;;;;;22.35;100.00;98740.56;7684814;22;98334;-66
2023/07/15 02:00:50;;;;;;;;;16.40;15.40;;;;;22.31;100.00;98731.31;7710967;22;96371;-67
2023/07/15 02:03:54;;;;;;;;;15.80;15.80;;;;;22.32;100.00;98733.75;7708452;22;96781;-67
2023/07/15 02:06:57;;;;;;;;;14.00;14.00;;;;;22.31;100.00;98737.63;7733145;22;97120;-67
2023/07/15 02:10:02;;;;;;;;;17.00;15.50;;;;;22.30;100.00;98744.22;7734457;22;96489;-67
2023/07/15 02:13:09;;;;;;;;;16.60;15.00;;;;;22.31;100.00;98734.06;7734057;22;98080;-66
2023/07/15 02:16:13;;;;;;;;;14.75;14.00;;;;;22.30;100.00;98738.72;7707431;22;96736;-67
2023/07/15 02:19:18;;;;;;;;;16.60;15.60;;;;;22.26;100.00;98737.72;7735677;22;96802;-67
2023/07/15 02:22:21;;;;;;;;;15.00;14.00;;;;;22.23;100.00;98734.75;7737339;22;96382;-66
2023/07/15 02:25:27;;;;;;;;;15.00;14.00;;;;;22.24;100.00;98737.19;7736877;22;96509;-66
2023/07/15 02:28:30;;;;;;;;;15.00;14.25;;;;;22.25;100.00;98749.81;7709144;22;96637;-67
2023/07/15 02:31:34;;;;;;;;;15.25;15.25;;;;;22.26;100.00;98745.94;7709167;22;96615;-67
2023/07/15 02:34:37;;;;;;;;;15.00;15.00;;;;;22.27;100.00;98758.56;7709293;22;99663;-67
2023/07/15 02:37:43;;;;;;;;;15.00;14.50;;;;;22.27;100.00;98761.31;7737563;22;96295;-66
2023/07/15 02:40:51;;;;;;;;;16.40;16.00;;;;;22.27;100.00;98766.81;7684742;22;98381;-67
2023/07/15 02:43:54;;;;;;;;;17.67;15.67;;;;;22.29;100.00;98763.75;7737296;22;96356;-67
2023/07/15 02:46:57;;;;;;;;;15.00;14.60;;;;;22.31;100.00;98765.09;7735696;22;96210;-67
2023/07/15 02:50:04;;;;;;;;;14.60;14.60;;;;;22.33;100.00;98759.31;7737455;22;96248;-66
2023/07/15 02:53:07;;;;;;;;;15.40;14.40;;;;;22.37;100.00;98765.81;7709941;22;96284;-67
2023/07/15 02:56:12;;;;;;;;;16.75;15.50;;;;;22.31;100.00;98762.34;7735686;22;96835;-67
2023/07/15 02:59:16;;;;;;;;;17.00;15.60;;;;;22.34;100.00;98769.16;7709159;22;98631;-67
2023/07/15 03:02:20;;;;;;;;;18.40;18.00;;;;;22.34;100.00;98778.19;7709841;22;98506;-67
2023/07/15 03:05:23;;;;;;;;;13.20;13.00;;;;;22.34;100.00;98766.41;7736046;22;96951;-67
2023/07/15 03:08:27;;;;;;;;;14.20;13.00;;;;;22.27;100.00;98757.75;7709236;22;96764;-67
2023/07/15 03:11:32;;;;;;;;;17.00;17.00;;;;;22.38;100.00;98767.44;7736384;22;96416;-67
2023/07/15 03:14:35;;;;;;;;;15.00;14.60;;;;;22.38;100.00;98770.19;7734840;22;97675;-67
2023/07/15 03:17:39;;;;;;;;;14.40;12.40;;;;;22.40;100.00;98771.50;7736547;22;96388;-67
2023/07/15 03:20:43;;;;;;;;;15.20;14.20;;;;;22.42;100.00;98772.03;7735604;22;96907;-67
2023/07/15 03:23:46;;;;;;;;;16.40;15.00;;;;;22.41;100.00;98772.31;7736549;22;96249;-67
2023/07/15 03:26:51;;;;;;;;;17.00;15.00;;;;;22.40;100.00;98771.50;7684101;22;98685;-66
2023/07/15 03:29:54;;;;;;;;;13.25;12.75;;;;;22.42;100.00;98768.47;7735476;22;96868;-67
2023/07/15 03:32:58;;;;;;;;;15.80;13.80;;;;;22.42;100.00;98772.03;7709866;22;96548;-67
2023/07/15 03:36:03;;;;;;;;;13.00;12.60;;;;;22.44;100.00;98771.72;7709599;22;99264;-66
2023/07/15 03:39:07;;;;;;;;;16.60;16.00;;;;;22.46;100.00;98774.97;7737057;22;96570;-67
2023/07/15 03:42:12;;;;;;;;;13.00;12.00;;;;;22.47;100.00;98768.38;7736457;22;96741;-67
2023/07/15 03:45:15;;;;;;;;;13.40;13.00;;;;;22.40;100.00;98763.28;7708678;22;96855;-66
2023/07/15 03:48:18;;;;;;;;;13.60;12.60;;;;;22.44;100.00;98768.97;7734996;22;96354;-66
2023/07/15 03:51:21;;;;;;;;;13.00;13.00;;;;;22.45;100.00;98765.09;7708993;22;96885;-66
2023/07/15 03:54:24;;;;;;;;;15.00;13.00;;;;;22.51;100.00;98765.84;7706408;22;97798;-66
2023/07/15 03:57:29;;;;;;;;;13.80;13.00;;;;;22.57;100.00;98761.88;7736764;22;96232;-67
2023/07/15 04:00:32;;;;;;;;;13.40;12.00;;;;;22.65;100.00;98763.91;7708875;22;97511;-67
2023/07/15 04:03:36;;;;;;;;;14.60;14.00;;;;;22.59;100.00;98754.94;7683370;22;96664;-67
2023/07/15 04:06:39;;;;;;;;;13.80;12.80;;;;;22.73;100.00;98768.75;7708352;22;97081;-66
2023/07/15 04:09:43;;;;;;;;;12.50;12.00;;;;;22.81;100.00;98770.81;7705906;22;98298;-67
2023/07/15 04:12:47;;;;;;;;;12.50;12.00;;;;;22.95;100.00;98770.81;7735238;22;96406;-66
2023/07/15 04:15:51;;;;;;;;;13.00;13.00;;;;;23.08;100.00;98770.78;7707562;22;98477;-67
2023/07/15 04:18:54;;;;;;;;;17.00;15.00;;;;;23.16;100.00;98780.28;7735938;22;96355;-66
2023/07/15 04:21:57;;;;;;;;;15.00;14.60;;;;;23.25;100.00;98776.50;7734480;22;96704;-66
2023/07/15 04:25:00;;;;;;;;;14.00;14.00;;;;;23.46;100.00;98792.59;7736890;22;96470;-66
2023/07/15 04:28:05;;;;;;;;;15.40;14.40;;;;;23.63;100.00;98788.09;7709792;22;96632;-67
2023/07/15 04:31:08;;;;;;;;;14.00;13.60;;;;;23.79;100.00;98782.22;7711293;22;96810;-67
2023/07/15 04:34:11;;;;;;;;;17.00;16.00;;;;;23.95;100.00;98780.72;7738223;22;96257;-67
2023/07/15 04:37:14;;;;;;;;;14.00;13.00;;;;;24.12;100.00;98783.63;7737677;22;96760;-66
2023/07/15 04:40:18;;;;;;;;;16.00;14.60;;;;;24.32;100.00;98791.44;7736439;22;96498;-66
2023/07/15 04:43:22;;;;;;;;;13.00;12.75;;;;;24.51;100.00;98783.78;7684654;22;96303;-67
2023/07/15 04:46:26;;;;;;;;;14.00;14.00;;;;;24.68;100.00;98785.00;7710063;22;98308;-67
2023/07/15 04:49:29;;;;;;;;;13.00;12.50;;;;;24.83;100.00;98788.16;7710723;22;96825;-67
2023/07/15 04:52:32;;;;;;;;;13.00;12.20;;;;;25.00;100.00;98784.69;7710434;22;96290;-67
2023/07/15 04:55:36;;;;;;;;;11.80;11.80;;;;;25.20;100.00;98789.63;7709772;22;99127;-67
2023/07/15 04:58:42;;;;;;;;;14.00;13.00;;;;;25.37;100.00;98794.38;7736786;22;97539;-67
2023/07/15 05:01:45;;;;;;;;;15.00;15.00;;;;;25.53;100.00;98795.56;7737663;22;96315;-67
2023/07/15 05:04:50;;;;;;;;;15.40;14.60;;;;;25.75;100.00;98801.00;7738226;22;96479;-67
2023/07/15 05:07:55;;;;;;;;;17.25;16.00;;;;;25.95;100.00;98793.22;7736808;22;96281;-67
2023/07/15 05:11:02;;;;;;;;;14.40;13.40;;;;;26.10;100.00;98793.50;7736865;22;96259;-67
2023/07/15 05:14:07;;;;;;;;;13.00;13.00;;;;;26.28;100.00;98800.69;7709236;22;98896;-67
2023/07/15 05:17:12;;;;;;;;;17.00;15.80;;;;;26.37;100.00;98784.09;7709084;22;97098;-67
2023/07/15 05:20:16;;;;;;;;;14.75;14.75;;;;;26.53;100.00;98790.75;7737728;22;96350;-67
2023/07/15 05:23:20;;;;;;;;;13.75;13.00;;;;;26.67;100.00;98794.13;7709003;22;97091;-66
2023/07/15 05:26:24;;;;;;;;;15.40;15.00;;;;;26.80;100.00;98800.59;7708997;22;98581;-67
2023/07/15 05:29:28;;;;;;;;;14.00;14.00;;;;;26.97;100.00;98802.53;7737642;22;96229;-67
2023/07/15 05:32:31;;;;;;;;;14.25;13.00;;;;;27.13;100.00;98807.16;7736385;22;96225;-67
2023/07/15 05:35:35;;;;;;;;;14.00;14.00;;;;;27.33;100.00;98796.47;7708999;22;97248;-67
2023/07/15 05:38:42;;;;;;;;;11.00;11.00;;;;;27.50;100.00;98807.50;7738041;22;97048;-67
2023/07/15 05:41:46;;;;;;;;;9.00;9.00;;;;;27.57;100.00;98808.56;7736459;22;96312;-67
2023/07/15 05:44:50;;;;;;;;;10.00;9.60;;;;;27.63;100.00;98805.63;7737851;22;96484;-68
2023/07/15 05:47:54;;;;;;;;;8.00;7.60;;;;;27.75;100.00;98805.72;7708840;22;98446;-68
2023/07/15 05:50:57;;;;;;;;;9.50;9.00;;;;;27.69;100.00;98798.75;7735702;22;97096;-68
2023/07/15 05:54:00;;;;;;;;;9.00;9.00;;;;;27.86;100.00;98798.59;7735220;22;97084;-67
2023/07/15 05:57:04;;;;;;;;;6.60;6.00;;;;;27.89;100.00;98803.50;7710054;22;98365;-68
2023/07/15 06:00:10;;;;;;;;;7.40;7.00;;;;;27.94;100.00;98794.97;7709663;22;97276;-68
2023/07/15 06:03:14;;;;;;;;;7.00;7.00;;;;;28.06;100.00;98811.66;7737657;22;96243;-68
2023/07/15 06:06:17;;;;;;;;;8.00;8.00;;;;;28.14;100.00;98810.00;7708916;22;97113;-67
2023/07/15 06:09:20;;;;;;;;;9.40;9.40;;;;;28.15;100.00;98808.88;7734010;22;96231;-67
2023/07/15 06:12:24;;;;;;;;;8.00;6.00;;;;;28.22;100.00;98806.34;7705462;22;98778;-67
2023/07/15 06:15:29;;;;;;;;;9.50;9.50;;;;;28.36;100.00;98802.13;7707182;22;96645;-68
2023/07/15 06:18:33;;;;;;;;;8.40;8.40;;;;;28.56;100.00;98805.19;7706500;22;96772;-67
2023/07/15 06:21:37;;;;;;;;;8.00;8.00;;;;;28.62;100.00;98801.06;7733835;22;96534;-68
2023/07/15 06:24:40;;;;;;;;;8.00;8.00;;;;;28.77;100.00;98806.00;7709998;22;96627;-68
2023/07/15 06:27:43;;;;;;;;;10.00;9.00;;;;;28.90;100.00;98804.84;7709169;22;98487;-67
2023/07/15 06:30:50;;;;;;;;;6.00;6.00;;;;;29.03;100.00;98800.13;7683644;22;97205;-68
2023/07/15 06:33:53;;;;;;;;;6.00;6.00;;;;;29.10;100.00;98812.28;7735307;22;96346;-67
2023/07/15 06:36:57;;;;;;;;;8.60;7.60;;;;;29.08;100.00;98806.25;7710421;22;96953;-67
2023/07/15 06:40:00;;;;;;;;;5.75;5.00;;;;;29.20;100.00;98802.69;7710651;22;96441;-68
2023/07/15 06:43:03;;;;;;;;;8.00;7.00;;;;;29.20;100.00;98808.25;7709266;22;96785;-68
2023/07/15 06:46:08;;;;;;;;;10.00;9.00;;;;;29.33;100.00;98801.56;7708331;22;96944;-68
2023/07/15 06:49:11;;;;;;;;;7.80;7.40;;;;;29.39;100.00;98808.50;7709692;22;96624;-68
2023/07/15 06:52:15;;;;;;;;;8.00;7.40;;;;;29.45;100.00;98795.19;7737575;22;96324;-67
2023/07/15 06:55:18;;;;;;;;;8.50;8.00;;;;;29.59;100.00;98804.78;7709773;22;97007;-67
2023/07/15 06:58:21;;;;;;;;;7.00;7.00;;;;;29.63;100.00;98802.13;7709488;22;96259;-68
2023/07/15 07:01:26;;;;;;;;;7.80;7.00;;;;;29.83;100.00;98801.16;7737348;22;96254;-68
2023/07/15 07:04:30;;;;;;;;;8.00;8.00;;;;;29.91;100.00;98805.00;7736843;22;96365;-68
2023/07/15 07:07:33;;;;;;;;;8.75;8.50;;;;;29.91;100.00;98800.22;7709455;22;96771;-68
2023/07/15 07:10:36;;;;;;;;;8.00;8.00;;;;;30.05;100.00;98797.09;7735847;22;96618;-68
2023/07/15 07:13:40;;;;;;;;;8.00;7.00;;;;;30.18;100.00;98795.88;7710187;22;96594;-68
2023/07/15 07:16:45;;;;;;;;;7.00;7.00;;;;;30.39;100.00;98792.91;7737328;22;97508;-68
2023/07/15 07:19:48;;;;;;;;;6.20;6.20;;;;;30.32;100.00;98787.94;7735731;22;96818;-68
2023/07/15 07:22:51;;;;;;;;;9.00;8.00;;;;;30.48;100.00;98793.56;7708879;22;98411;-68
2023/07/15 07:25:55;;;;;;;;;7.00;7.00;;;;;30.55;100.00;98791.78;7709469;22;97445;-68
2023/07/15 07:28:58;;;;;;;;;7.60;7.60;;;;;30.54;100.00;98804.06;7709660;22;96386;-68
2023/07/15 07:32:03;;;;;;;;;9.60;8.60;;;;;30.67;100.00;98799.28;7737162;22;97101;-68
2023/07/15 07:35:07;;;;;;;;;7.00;7.00;;;;;30.89;100.00;98789.50;7736898;22;96281;-68
2023/07/15 07:38:10;;;;;;;;;8.00;7.60;;;;;30.89;100.00;98800.63;7737081;22;96340;-67
2023/07/15 07:41:15;;;;;;;;;9.00;9.00;;;;;31.07;100.00;98792.78;7736654;22;96809;-68
2023/07/15 07:44:19;;;;;;;;;9.40;9.40;;;;;31.31;100.00;98789.81;7735513;22;96900;-68
2023/07/15 07:47:25;;;;;;;;;8.00;8.00;;;;;31.44;100.00;98788.53;7736951;22;96300;-68
2023/07/15 07:50:28;;;;;;;;;8.00;7.00;;;;;31.64;100.00;98783.84;7736823;22;96450;-68
2023/07/15 07:53:31;;;;;;;;;7.00;7.00;;;;;31.64;100.00;98783.84;7735182;22;96877;-68
2023/07/15 07:56:35;;;;;;;;;6.00;6.00;;;;;31.82;100.00;98783.06;7708743;22;96696;-68
2023/07/15 07:59:38;;;;;;;;;6.60;6.60;;;;;31.82;100.00;98790.63;7711563;22;97260;-68
2023/07/15 08:02:43;;;;;;;;;8.00;8.00;;;;;31.82;100.00;98794.22;7738604;22;96272;-67
2023/07/15 08:05:47;;;;;;;;;8.00;8.00;;;;;32.03;100.00;98788.31;7710044;22;98528;-68
2023/07/15 08:08:52;;;;;;;;;6.20;6.20;;;;;32.27;100.00;98790.03;7735530;22;96368;-68
2023/07/15 08:11:55;;;;;;;;;9.00;9.00;;;;;32.40;99.63;98791.47;7709418;22;96602;-68
2023/07/15 08:14:58;;;;;;;;;7.40;7.40;;;;;32.43;97.14;98785.16;7736318;22;96561;-68
2023/07/15 08:18:04;;;;;;;;;6.00;6.00;;;;;32.43;99.10;98790.75;7708290;22;96487;-68
2023/07/15 08:21:07;;;;;;;;;6.60;6.60;;;;;32.65;96.72;98783.59;7708259;22;96764;-68
2023/07/15 08:24:11;;;;;;;;;7.50;6.50;;;;;32.99;94.66;98768.66;7737545;22;96327;-68
2023/07/15 08:27:14;;;;;;;;;8.00;8.00;;;;;33.38;98.51;98779.75;7737003;22;96236;-68
2023/07/15 08:30:17;;;;;;;;;8.00;7.00;;;;;33.52;90.41;98785.53;7708722;22;97116;-68
2023/07/15 08:33:22;;;;;;;;;6.00;6.00;;;;;33.23;85.86;98777.88;7735947;22;97122;-68
2023/07/15 08:36:25;;;;;;;;;7.00;7.00;;;;;33.28;88.92;98781.16;7708947;22;97054;-68
2023/07/15 08:39:28;;;;;;;;;7.00;7.00;;;;;33.44;91.31;98776.22;7735690;22;96423;-68
2023/07/15 08:42:36;;;;;;;;;7.00;6.40;;;;;33.33;87.99;98786.41;7735324;22;96759;-68
2023/07/15 08:45:39;;;;;;;;;5.33;5.33;;;;;33.50;80.49;98777.53;7709971;22;96566;-68
2023/07/15 08:48:44;;;;;;;;;5.60;5.60;;;;;33.62;74.75;98784.09;7710538;22;96314;-68
2023/07/15 08:51:47;;;;;;;;;7.00;7.00;;;;;33.60;76.61;98780.84;7738275;22;97090;-68
2023/07/15 08:54:52;;;;;;;;;6.75;6.00;;;;;33.30;78.50;98778.00;7710162;22;96950;-68
2023/07/15 08:57:56;;;;;;;;;6.00;6.00;;;;;33.77;78.65;98777.56;7737690;22;96556;-68
2023/07/15 09:00:59;;;;;;;;;7.00;6.00;;;;;33.79;76.17;98783.56;7709418;22;98460;-68
2023/07/15 09:04:04;;;;;;;;;7.00;7.00;;;;;33.95;73.83;98770.19;7710297;22;98517;-68
2023/07/15 09:07:08;;;;;;;;;7.60;7.00;;;;;34.19;74.40;98768.94;7737583;22;96514;-68
2023/07/15 09:10:13;;;;;;;;;6.60;5.60;;;;;34.30;69.01;98773.47;7735633;22;98508;-68
2023/07/15 09:13:22;;;;;;;;;7.00;7.00;;;;;34.48;71.93;98770.06;7738391;22;96059;-67
2023/07/15 09:16:27;;;;;;;;;7.20;6.80;;;;;34.70;65.17;98769.91;7711082;22;96363;-68
2023/07/15 09:19:35;;;;;;;;;7.00;7.00;;;;;34.84;62.04;98766.47;7735108;22;96702;-68
2023/07/15 09:22:38;;;;;;;;;6.00;6.00;;;;;35.15;61.21;98762.31;7736496;22;96836;-68
2023/07/15 09:25:51;;;;;;;;;7.75;7.00;;;;;35.37;67.20;98763.34;7737450;22;96374;-68
2023/07/15 09:28:54;;;;;;;;;6.60;6.00;;;;;35.15;64.14;98763.13;7736116;22;96427;-68
2023/07/15 09:31:58;;;;;;;;;7.00;6.60;;;;;35.06;63.93;98761.84;7736748;22;96595;-68
2023/07/15 09:35:03;;;;;;;;;6.60;6.00;;;;;35.12;61.69;98755.50;7738078;22;96302;-68
2023/07/15 09:38:11;;;;;;;;;7.00;7.00;;;;;35.18;60.42;98756.00;7736352;22;96242;-68
2023/07/15 09:41:20;;;;;;;;;6.00;5.40;;;;;35.36;60.92;98739.28;7683719;22;96587;-69
2023/07/15 09:44:34;;;;;;;;;7.00;6.40;;;;;35.62;56.01;98742.69;7708945;22;96895;-68
2023/07/15 09:47:37;;;;;;;;;5.00;5.00;;;;;36.06;57.62;98744.53;7710628;22;96268;-68
2023/07/15 09:50:42;;;;;;;;;7.00;7.00;;;;;36.14;53.63;98739.78;7708336;22;97284;-68
2023/07/15 09:53:49;;;;;;;;;6.00;6.00;;;;;36.26;55.81;98731.81;7736265;22;96364;-68
2023/07/15 09:56:57;;;;;;;;;6.00;6.00;;;;;36.42;55.37;98735.03;7736903;22;96403;-68
2023/07/15 10:00:00;;;;;;;;;7.00;7.00;;;;;36.68;57.75;98735.94;7709584;22;96753;-69
2023/07/15 10:03:22;;;;;;;;;6.00;6.00;;;;;36.39;55.38;98735.03;7737901;22;96315;-68
2023/07/15 10:06:27;;;;;;;;;7.40;7.00;;;;;36.21;56.76;98735.00;7736928;22;96630;-68
2023/07/15 10:09:31;;;;;;;;;7.00;7.00;;;;;36.42;58.08;98735.03;7734216;22;96265;-68
2023/07/15 10:12:36;;;;;;;;;6.00;6.00;;;;;36.02;55.79;98729.66;7707635;22;98286;-68
2023/07/15 10:15:40;;;;;;;;;7.00;7.00;;;;;35.48;60.21;98724.97;7735471;22;96848;-68
2023/07/15 10:18:46;;;;;;;;;7.00;7.00;;;;;35.68;57.53;98739.53;7736712;22;96195;-68
2023/07/15 10:21:51;;;;;;;;;5.00;4.40;;;;;35.20;60.95;98723.56;7734578;22;98394;-68
2023/07/15 10:24:56;;;;;;;;;6.20;6.20;;;;;35.11;58.63;98720.28;7709064;22;98723;-68
2023/07/15 10:28:11;;;;;;;;;5.00;4.20;;;;;35.42;57.20;98720.94;7737292;22;96205;-68
2023/07/15 10:31:16;;;;;;;;;6.40;6.40;;;;;35.59;54.70;98723.81;7709143;22;96589;-68
2023/07/15 10:34:19;;;;;;;;;5.00;5.00;;;;;35.85;51.01;98722.00;7737454;22;95977;-68
2023/07/15 10:37:23;;;;;;;;;6.00;6.00;;;;;36.20;53.48;98729.78;7736418;22;96291;-68
2023/07/15 10:40:49;;;;;;;;;7.40;7.40;;;;;36.06;53.91;98727.69;7709646;22;98677;-68
2023/07/15 10:43:52;;;;;;;;;6.00;5.00;;;;;35.84;55.11;98721.19;7710761;22;96293;-68
2023/07/15 10:47:04;;;;;;;;;6.00;6.00;;;;;36.16;56.64;98718.53;7737032;22;96405;-68
2023/07/15 10:50:08;;;;;;;;;5.60;5.60;;;;;36.32;54.57;98721.78;7737304;22;96399;-68
2023/07/15 10:53:25;;;;;;;;;6.00;5.60;;;;;36.66;53.06;98713.03;7708656;22;96641;-68
2023/07/15 10:56:28;;;;;;;;;6.00;6.00;;;;;36.93;51.50;98694.63;7737915;22;96176;-68
2023/07/15 10:59:35;;;;;;;;;6.00;5.00;;;;;36.78;49.23;98707.84;7683496;22;98522;-68
2023/07/15 11:02:38;;;;;;;;;6.00;5.00;;;;;36.93;53.02;98708.66;7709996;22;98492;-68
2023/07/15 11:05:43;;;;;;;;;6.00;6.00;;;;;36.69;49.95;98651.28;7736954;22;96437;-68
2023/07/15 11:08:47;;;;;;;;;7.00;7.00;;;;;37.04;52.02;98705.84;7709270;22;96911;-68
2023/07/15 11:11:51;;;;;;;;;7.60;7.60;;;;;37.09;49.66;98702.66;7709491;22;97575;-68
2023/07/15 11:14:54;;;;;;;;;6.00;6.00;;;;;37.31;53.78;98695.81;7736987;22;96369;-68
2023/07/15 11:17:57;;;;;;;;;5.75;5.75;;;;;37.18;47.18;98697.44;7737287;22;96197;-69
2023/07/15 11:21:01;;;;;;;;;5.20;5.20;;;;;37.21;47.26;98691.00;7735314;22;96860;-68
2023/07/15 11:24:06;;;;;;;;;7.00;7.00;;;;;37.46;48.59;98694.56;7736565;22;96894;-69
2023/07/15 11:27:10;;;;;;;;;6.00;5.00;;;;;37.28;47.68;98691.81;7709741;22;96438;-69
2023/07/15 11:30:13;;;;;;;;;5.60;5.00;;;;;37.09;47.44;98683.81;7736309;22;96219;-68
2023/07/15 11:33:17;;;;;;;;;7.00;6.00;;;;;37.13;49.82;98680.97;7736903;22;96395;-68
2023/07/15 11:36:21;;;;;;;;;7.00;6.33;;;;;37.24;48.67;98681.78;7735470;22;96232;-68
2023/07/15 11:39:27;;;;;;;;;7.00;7.00;;;;;37.01;49.53;98673.72;7709483;22;96249;-68
2023/07/15 11:42:35;;;;;;;;;6.60;6.60;;;;;37.12;49.34;98674.56;7708704;22;98361;-69
2023/07/15 11:45:39;;;;;;;;;7.00;6.00;;;;;37.00;55.36;98671.31;7736695;22;96273;-68
2023/07/15 11:48:42;;;;;;;;;6.00;6.00;;;;;36.81;52.40;98670.53;7736019;22;96220;-68
2023/07/15 11:51:46;;;;;;;;;7.00;6.00;;;;;36.58;51.85;98663.66;7735731;22;96940;-69
2023/07/15 11:54:50;;;;;;;;;8.80;8.00;;;;;36.86;57.45;98667.31;7734674;22;96062;-68
2023/07/15 11:57:54;;;;;;;;;7.00;7.00;;;;;37.12;50.52;98662.50;7735504;22;96221;-68
2023/07/15 12:00:58;;;;;;;;;5.80;5.20;;;;;37.26;51.03;98668.09;7709129;22;96213;-69
2023/07/15 12:04:01;;;;;;;;;5.00;5.00;;;;;37.48;49.05;98661.22;7708222;22;98400;-69
2023/07/15 12:07:05;;;;;;;;;7.25;7.00;;;;;37.81;50.30;98656.28;7736351;22;96351;-69
2023/07/15 12:10:11;;;;;;;;;6.25;6.25;;;;;37.95;47.06;98661.84;7709271;22;96041;-69
2023/07/15 12:13:14;;;;;;;;;6.25;6.00;;;;;37.91;47.41;98653.44;7732564;22;96343;-68
2023/07/15 12:16:18;;;;;;;;;7.00;7.00;;;;;37.66;49.28;98653.53;7732489;22;96414;-68
2023/07/15 12:19:23;;;;;;;;;8.00;7.00;;;;;37.59;46.67;98653.56;7706803;22;96970;-68
2023/07/15 12:22:27;;;;;;;;;5.20;5.00;;;;;37.64;44.75;98643.91;7708320;22;98375;-68
2023/07/15 12:25:32;;;;;;;;;6.00;6.00;;;;;37.53;44.62;98643.97;7707674;22;96642;-69
2023/07/15 12:28:36;;;;;;;;;4.00;4.00;;;;;37.51;43.77;98645.53;7736356;22;96220;-69
2023/07/15 12:31:39;;;;;;;;;6.00;6.00;;;;;37.73;46.25;98641.44;7683155;22;96770;-69
2023/07/15 12:34:42;;;;;;;;;4.60;4.60;;;;;37.84;43.65;98636.56;7685032;22;98320;-68
2023/07/15 12:37:45;;;;;;;;;5.00;5.00;;;;;37.58;42.39;98640.69;7710896;22;97195;-69
2023/07/15 12:40:50;;;;;;;;;6.00;5.80;;;;;37.65;43.90;98635.06;7710580;22;96255;-69
2023/07/15 12:43:57;;;;;;;;;5.00;5.00;;;;;37.74;43.88;98632.59;7736697;22;96198;-68
2023/07/15 12:47:01;;;;;;;;;5.00;5.00;;;;;37.85;43.89;98623.31;7738278;22;96158;-68
2023/07/15 12:50:05;;;;;;;;;5.00;5.00;;;;;37.76;44.81;98631.41;7709529;22;97182;-69
2023/07/15 12:53:08;;;;;;;;;6.00;5.00;;;;;37.52;40.90;98631.06;7736162;22;96259;-69
2023/07/15 12:56:13;;;;;;;;;4.40;4.00;;;;;37.49;41.67;98628.25;7737962;22;96346;-68
2023/07/15 12:59:18;;;;;;;;;4.80;4.80;;;;;37.53;41.86;98615.00;7738349;22;96036;-68
2023/07/15 13:02:21;;;;;;;;;5.00;5.00;;;;;37.50;41.26;98615.78;7738291;22;96251;-68
2023/07/15 13:05:25;;;;;;;;;5.00;5.00;;;;;37.51;43.86;98626.66;7709834;22;98615;-68
2023/07/15 13:08:28;;;;;;;;;4.60;4.60;;;;;37.53;42.36;98615.00;7738101;22;96305;-68
2023/07/15 13:11:33;;;;;;;;;5.67;5.67;;;;;37.62;43.09;98619.00;7737508;22;96280;-68
2023/07/15 13:14:36;;;;;;;;;4.00;4.00;;;;;37.60;41.78;98609.34;7736549;22;96249;-69
2023/07/15 13:17:40;;;;;;;;;7.00;6.00;;;;;37.36;41.86;98610.22;7737980;22;96964;-68
2023/07/15 13:20:43;;;;;;;;;5.00;5.00;;;;;37.20;45.35;98619.91;7737515;22;96365;-68
2023/07/15 13:23:47;;;;;;;;;7.60;6.60;;;;;36.94;45.16;98609.13;7709559;22;96580;-69
2023/07/15 13:26:51;;;;;;;;;9.00;8.00;;;;;37.01;45.84;98614.72;7737528;22;96506;-68
2023/07/15 13:29:55;;;;;;;;;5.00;4.60;;;;;37.11;44.67;98605.47;7709446;22;98538;-68
2023/07/15 13:32:58;;;;;;;;;5.40;5.00;;;;;37.38;47.22;98605.00;7710043;22;98387;-68
2023/07/15 13:36:02;;;;;;;;;6.00;6.00;;;;;37.62;45.93;98599.31;7736092;22;96304;-69
2023/07/15 13:39:05;;;;;;;;;6.00;6.00;;;;;37.76;45.20;98603.25;7738100;22;96239;-69
2023/07/15 13:42:12;;;;;;;;;6.60;6.00;;;;;37.67;45.84;98593.28;7737296;22;96750;-68
2023/07/15 13:45:16;;;;;;;;;4.75;4.75;;;;;37.72;43.66;98604.09;7709308;22;97021;-68
2023/07/15 13:48:19;;;;;;;;;5.00;5.00;;;;;37.67;42.37;98595.28;7736019;22;96724;-69
2023/07/15 13:51:22;;;;;;;;;4.00;4.00;;;;;37.74;45.91;98590.41;7736039;22;96891;-68
2023/07/15 13:54:26;;;;;;;;;4.00;3.40;;;;;37.73;42.63;98590.81;7736704;22;96239;-69
2023/07/15 13:57:31;;;;;;;;;6.00;5.40;;;;;37.76;39.89;98592.81;7737327;22;96255;-68
2023/07/15 14:00:34;;;;;;;;;3.80;3.80;;;;;37.87;40.86;98596.38;7737769;22;96171;-69
2023/07/15 14:03:38;;;;;;;;;4.60;4.40;;;;;37.76;38.82;98597.63;7737638;22;96216;-69
2023/07/15 14:06:41;;;;;;;;;6.00;5.40;;;;;37.59;37.74;98594.50;7734715;22;96423;-68
2023/07/15 14:09:44;;;;;;;;;4.60;4.60;;;;;37.60;37.39;98592.47;7733763;22;96699;-68
2023/07/15 14:12:49;;;;;;;;;4.40;4.40;;;;;37.63;40.67;98586.84;7734383;22;96490;-69
2023/07/15 14:15:52;;;;;;;;;4.40;4.00;;;;;37.77;37.49;98594.41;7735025;22;97557;-68